sensor_id;sensor_type;location;lat;lon;timestamp;P1;durP1;ratioP1;P2;durP2;ratioP2
64375;SDS011;50700;55.416;12.952;2023-03-31T00:02:02;15.68;;;4.57;;
64375;SDS011;50700;55.416;12.952;2023-03-31T00:04:38;19.48;;;4.93;;
64375;SDS011;50700;55.416;12.952;2023-03-31T00:07:11;15.13;;;3.97;;
64375;SDS011;50700;55.416;12.952;2023-03-31T00:09:37;14.43;;;4.32;;
64375;SDS011;50700;55.416;12.952;2023-03-31T00:12:06;19.45;;;4.13;;
64375;SDS011;50700;55.416;12.952;2023-03-31T00:14:32;13.05;;;4.13;;
64375;SDS011;50700;55.416;12.952;2023-03-31T00:16:58;15.90;;;4.20;;
64375;SDS011;50700;55.416;12.952;2023-03-31T00:19:26;18.73;;;4.13;;
64375;SDS011;50700;55.416;12.952;2023-03-31T00:21:53;11.38;;;3.72;;
64375;SDS011;50700;55.416;12.952;2023-03-31T00:24:19;11.88;;;4.30;;
64375;SDS011;50700;55.416;12.952;2023-03-31T00:26:45;9.82;;;2.85;;
64375;SDS011;50700;55.416;12.952;2023-03-31T00:29:11;11.35;;;3.80;;
64375;SDS011;50700;55.416;12.952;2023-03-31T00:31:38;10.82;;;3.17;;
64375;SDS011;50700;55.416;12.952;2023-03-31T00:34:05;9.65;;;3.05;;
64375;SDS011;50700;55.416;12.952;2023-03-31T00:36:31;12.77;;;3.38;;
64375;SDS011;50700;55.416;12.952;2023-03-31T00:39:02;12.95;;;2.78;;
64375;SDS011;50700;55.416;12.952;2023-03-31T00:41:32;6.95;;;2.80;;
64375;SDS011;50700;55.416;12.952;2023-03-31T00:44:06;8.00;;;3.10;;
64375;SDS011;50700;55.416;12.952;2023-03-31T00:46:34;9.63;;;3.20;;
64375;SDS011;50700;55.416;12.952;2023-03-31T00:49:03;11.55;;;3.08;;
64375;SDS011;50700;55.416;12.952;2023-03-31T00:51:31;8.70;;;3.10;;
64375;SDS011;50700;55.416;12.952;2023-03-31T00:54:00;8.15;;;3.03;;
64375;SDS011;50700;55.416;12.952;2023-03-31T00:56:33;10.23;;;3.33;;
64375;SDS011;50700;55.416;12.952;2023-03-31T00:59:01;9.77;;;3.42;;
64375;SDS011;50700;55.416;12.952;2023-03-31T01:01:29;7.75;;;4.13;;
64375;SDS011;50700;55.416;12.952;2023-03-31T01:03:55;11.25;;;3.70;;
64375;SDS011;50700;55.416;12.952;2023-03-31T01:06:23;12.70;;;3.58;;
64375;SDS011;50700;55.416;12.952;2023-03-31T01:08:50;9.00;;;3.47;;
64375;SDS011;50700;55.416;12.952;2023-03-31T01:11:19;6.55;;;3.47;;
64375;SDS011;50700;55.416;12.952;2023-03-31T01:13:48;8.90;;;3.33;;
64375;SDS011;50700;55.416;12.952;2023-03-31T01:16:17;8.05;;;3.50;;
64375;SDS011;50700;55.416;12.952;2023-03-31T01:18:43;14.52;;;3.75;;
64375;SDS011;50700;55.416;12.952;2023-03-31T01:39:43;10.77;;;4.70;;
64375;SDS011;50700;55.416;12.952;2023-03-31T01:47:43;16.90;;;3.75;;
64375;SDS011;50700;55.416;12.952;2023-03-31T01:50:25;9.20;;;3.78;;
64375;SDS011;50700;55.416;12.952;2023-03-31T01:55:36;10.15;;;4.13;;
64375;SDS011;50700;55.416;12.952;2023-03-31T02:00:31;9.30;;;4.13;;
64375;SDS011;50700;55.416;12.952;2023-03-31T02:05:30;7.97;;;4.00;;
64375;SDS011;50700;55.416;12.952;2023-03-31T02:08:07;9.40;;;3.35;;
64375;SDS011;50700;55.416;12.952;2023-03-31T02:10:35;12.10;;;3.58;;
64375;SDS011;50700;55.416;12.952;2023-03-31T02:13:02;9.35;;;3.38;;
64375;SDS011;50700;55.416;12.952;2023-03-31T02:15:33;10.05;;;3.72;;
64375;SDS011;50700;55.416;12.952;2023-03-31T02:18:00;13.70;;;4.53;;
64375;SDS011;50700;55.416;12.952;2023-03-31T02:20:30;18.20;;;4.00;;
64375;SDS011;50700;55.416;12.952;2023-03-31T02:22:57;15.63;;;4.43;;
64375;SDS011;50700;55.416;12.952;2023-03-31T02:25:27;11.93;;;3.78;;
64375;SDS011;50700;55.416;12.952;2023-03-31T02:27:58;14.00;;;3.85;;
64375;SDS011;50700;55.416;12.952;2023-03-31T02:30:27;11.10;;;3.90;;
64375;SDS011;50700;55.416;12.952;2023-03-31T02:32:54;15.98;;;4.20;;
64375;SDS011;50700;55.416;12.952;2023-03-31T02:35:22;11.20;;;4.28;;
64375;SDS011;50700;55.416;12.952;2023-03-31T02:37:49;13.10;;;4.10;;
64375;SDS011;50700;55.416;12.952;2023-03-31T02:40:16;8.98;;;3.72;;
64375;SDS011;50700;55.416;12.952;2023-03-31T02:42:43;14.35;;;3.90;;
64375;SDS011;50700;55.416;12.952;2023-03-31T02:47:54;18.00;;;4.00;;
64375;SDS011;50700;55.416;12.952;2023-03-31T02:50:22;15.38;;;4.20;;
64375;SDS011;50700;55.416;12.952;2023-03-31T02:53:02;18.23;;;4.78;;
64375;SDS011;50700;55.416;12.952;2023-03-31T02:55:34;16.10;;;3.78;;
64375;SDS011;50700;55.416;12.952;2023-03-31T03:00:52;13.07;;;4.00;;
64375;SDS011;50700;55.416;12.952;2023-03-31T03:06:10;25.20;;;5.85;;
64375;SDS011;50700;55.416;12.952;2023-03-31T03:11:13;15.40;;;5.00;;
64375;SDS011;50700;55.416;12.952;2023-03-31T03:13:49;19.58;;;4.85;;
64375;SDS011;50700;55.416;12.952;2023-03-31T03:19:02;11.20;;;3.87;;
64375;SDS011;50700;55.416;12.952;2023-03-31T03:21:30;17.48;;;4.13;;
64375;SDS011;50700;55.416;12.952;2023-03-31T03:23:56;12.30;;;4.30;;
64375;SDS011;50700;55.416;12.952;2023-03-31T03:26:24;12.50;;;4.35;;
64375;SDS011;50700;55.416;12.952;2023-03-31T03:28:52;20.08;;;4.80;;
64375;SDS011;50700;55.416;12.952;2023-03-31T03:31:19;12.27;;;3.92;;
64375;SDS011;50700;55.416;12.952;2023-03-31T03:33:48;17.30;;;3.95;;
64375;SDS011;50700;55.416;12.952;2023-03-31T03:36:14;17.17;;;4.43;;
64375;SDS011;50700;55.416;12.952;2023-03-31T03:38:41;16.50;;;4.25;;
64375;SDS011;50700;55.416;12.952;2023-03-31T03:41:07;16.10;;;4.38;;
64375;SDS011;50700;55.416;12.952;2023-03-31T03:43:33;14.00;;;4.40;;
64375;SDS011;50700;55.416;12.952;2023-03-31T03:45:59;14.63;;;4.28;;
64375;SDS011;50700;55.416;12.952;2023-03-31T03:48:26;18.58;;;4.70;;
64375;SDS011;50700;55.416;12.952;2023-03-31T03:50:52;14.18;;;4.00;;
64375;SDS011;50700;55.416;12.952;2023-03-31T03:53:19;17.35;;;5.18;;
64375;SDS011;50700;55.416;12.952;2023-03-31T03:55:45;19.23;;;4.10;;
64375;SDS011;50700;55.416;12.952;2023-03-31T03:58:15;16.73;;;4.93;;
64375;SDS011;50700;55.416;12.952;2023-03-31T04:00:41;20.92;;;4.50;;
64375;SDS011;50700;55.416;12.952;2023-03-31T04:03:09;23.33;;;6.00;;
64375;SDS011;50700;55.416;12.952;2023-03-31T04:05:35;23.42;;;5.15;;
64375;SDS011;50700;55.416;12.952;2023-03-31T04:08:01;26.92;;;5.95;;
64375;SDS011;50700;55.416;12.952;2023-03-31T04:10:28;24.10;;;5.43;;
64375;SDS011;50700;55.416;12.952;2023-03-31T04:12:55;18.30;;;4.60;;
64375;SDS011;50700;55.416;12.952;2023-03-31T04:15:21;19.13;;;4.97;;
64375;SDS011;50700;55.416;12.952;2023-03-31T04:17:47;20.88;;;5.45;;
64375;SDS011;50700;55.416;12.952;2023-03-31T04:20:16;18.33;;;4.85;;
64375;SDS011;50700;55.416;12.952;2023-03-31T04:22:42;22.75;;;4.82;;
64375;SDS011;50700;55.416;12.952;2023-03-31T04:25:11;20.05;;;4.65;;
64375;SDS011;50700;55.416;12.952;2023-03-31T04:27:41;25.25;;;5.55;;
64375;SDS011;50700;55.416;12.952;2023-03-31T04:30:13;27.45;;;5.80;;
64375;SDS011;50700;55.416;12.952;2023-03-31T04:32:48;18.85;;;4.97;;
64375;SDS011;50700;55.416;12.952;2023-03-31T04:35:15;24.45;;;4.80;;
64375;SDS011;50700;55.416;12.952;2023-03-31T04:37:45;24.88;;;5.53;;
64375;SDS011;50700;55.416;12.952;2023-03-31T04:40:11;21.95;;;5.00;;
64375;SDS011;50700;55.416;12.952;2023-03-31T04:42:37;29.10;;;5.28;;
64375;SDS011;50700;55.416;12.952;2023-03-31T04:45:04;31.38;;;6.03;;
64375;SDS011;50700;55.416;12.952;2023-03-31T04:47:30;24.48;;;5.13;;
64375;SDS011;50700;55.416;12.952;2023-03-31T04:49:57;32.63;;;6.25;;
64375;SDS011;50700;55.416;12.952;2023-03-31T04:52:23;20.20;;;5.45;;
64375;SDS011;50700;55.416;12.952;2023-03-31T04:54:49;26.75;;;6.25;;
64375;SDS011;50700;55.416;12.952;2023-03-31T04:57:15;25.25;;;5.20;;
64375;SDS011;50700;55.416;12.952;2023-03-31T04:59:41;26.70;;;5.93;;
64375;SDS011;50700;55.416;12.952;2023-03-31T05:02:08;36.60;;;6.32;;
64375;SDS011;50700;55.416;12.952;2023-03-31T05:04:34;24.27;;;6.05;;
64375;SDS011;50700;55.416;12.952;2023-03-31T05:07:02;29.50;;;5.13;;
64375;SDS011;50700;55.416;12.952;2023-03-31T05:09:28;44.72;;;6.40;;
64375;SDS011;50700;55.416;12.952;2023-03-31T05:11:55;28.92;;;5.63;;
64375;SDS011;50700;55.416;12.952;2023-03-31T05:14:22;23.42;;;5.65;;
64375;SDS011;50700;55.416;12.952;2023-03-31T05:16:48;19.58;;;6.50;;
64375;SDS011;50700;55.416;12.952;2023-03-31T05:19:14;31.05;;;6.35;;
64375;SDS011;50700;55.416;12.952;2023-03-31T05:21:42;28.35;;;5.53;;
64375;SDS011;50700;55.416;12.952;2023-03-31T05:24:09;21.52;;;5.20;;
64375;SDS011;50700;55.416;12.952;2023-03-31T05:26:35;20.30;;;5.63;;
64375;SDS011;50700;55.416;12.952;2023-03-31T05:29:01;24.88;;;5.43;;
64375;SDS011;50700;55.416;12.952;2023-03-31T05:31:27;22.35;;;5.50;;
64375;SDS011;50700;55.416;12.952;2023-03-31T05:33:53;24.60;;;5.78;;
64375;SDS011;50700;55.416;12.952;2023-03-31T05:36:20;26.50;;;6.38;;
64375;SDS011;50700;55.416;12.952;2023-03-31T05:38:47;25.13;;;5.05;;
64375;SDS011;50700;55.416;12.952;2023-03-31T05:41:14;24.42;;;5.85;;
64375;SDS011;50700;55.416;12.952;2023-03-31T05:43:41;24.35;;;6.22;;
64375;SDS011;50700;55.416;12.952;2023-03-31T05:46:07;26.75;;;5.70;;
64375;SDS011;50700;55.416;12.952;2023-03-31T05:48:34;20.48;;;4.68;;
64375;SDS011;50700;55.416;12.952;2023-03-31T05:51:02;27.27;;;6.20;;
64375;SDS011;50700;55.416;12.952;2023-03-31T05:53:28;32.35;;;6.20;;
64375;SDS011;50700;55.416;12.952;2023-03-31T05:55:58;20.98;;;5.63;;
64375;SDS011;50700;55.416;12.952;2023-03-31T05:58:25;25.48;;;6.65;;
64375;SDS011;50700;55.416;12.952;2023-03-31T06:03:48;25.77;;;6.38;;
64375;SDS011;50700;55.416;12.952;2023-03-31T06:06:15;24.23;;;6.18;;
64375;SDS011;50700;55.416;12.952;2023-03-31T06:08:42;22.17;;;5.07;;
64375;SDS011;50700;55.416;12.952;2023-03-31T06:11:12;25.17;;;5.97;;
64375;SDS011;50700;55.416;12.952;2023-03-31T06:13:39;30.55;;;6.55;;
64375;SDS011;50700;55.416;12.952;2023-03-31T06:16:06;24.33;;;6.15;;
64375;SDS011;50700;55.416;12.952;2023-03-31T06:18:33;25.98;;;6.60;;
64375;SDS011;50700;55.416;12.952;2023-03-31T06:21:00;38.08;;;8.57;;
64375;SDS011;50700;55.416;12.952;2023-03-31T06:23:26;27.33;;;7.22;;
64375;SDS011;50700;55.416;12.952;2023-03-31T06:25:52;33.90;;;7.25;;
64375;SDS011;50700;55.416;12.952;2023-03-31T06:28:19;29.85;;;6.78;;
64375;SDS011;50700;55.416;12.952;2023-03-31T06:30:46;33.65;;;7.75;;
64375;SDS011;50700;55.416;12.952;2023-03-31T06:33:12;32.42;;;6.90;;
64375;SDS011;50700;55.416;12.952;2023-03-31T06:35:38;35.42;;;7.13;;
64375;SDS011;50700;55.416;12.952;2023-03-31T06:38:05;27.00;;;7.68;;
64375;SDS011;50700;55.416;12.952;2023-03-31T06:40:32;35.05;;;7.13;;
64375;SDS011;50700;55.416;12.952;2023-03-31T06:42:58;35.85;;;7.38;;
64375;SDS011;50700;55.416;12.952;2023-03-31T06:45:24;26.95;;;6.22;;
64375;SDS011;50700;55.416;12.952;2023-03-31T06:47:51;26.10;;;6.80;;
64375;SDS011;50700;55.416;12.952;2023-03-31T06:50:17;28.83;;;6.40;;
64375;SDS011;50700;55.416;12.952;2023-03-31T06:52:43;30.40;;;6.95;;
64375;SDS011;50700;55.416;12.952;2023-03-31T06:55:09;28.90;;;6.82;;
64375;SDS011;50700;55.416;12.952;2023-03-31T06:57:37;29.60;;;7.78;;
64375;SDS011;50700;55.416;12.952;2023-03-31T07:00:03;28.58;;;7.47;;
64375;SDS011;50700;55.416;12.952;2023-03-31T07:02:31;27.27;;;7.35;;
64375;SDS011;50700;55.416;12.952;2023-03-31T07:04:58;28.85;;;6.93;;
64375;SDS011;50700;55.416;12.952;2023-03-31T07:07:24;28.85;;;6.22;;
64375;SDS011;50700;55.416;12.952;2023-03-31T07:09:50;32.70;;;7.68;;
64375;SDS011;50700;55.416;12.952;2023-03-31T07:12:16;26.77;;;6.53;;
64375;SDS011;50700;55.416;12.952;2023-03-31T07:14:42;28.00;;;6.80;;
64375;SDS011;50700;55.416;12.952;2023-03-31T07:17:08;28.88;;;7.90;;
64375;SDS011;50700;55.416;12.952;2023-03-31T07:19:34;20.45;;;5.95;;
64375;SDS011;50700;55.416;12.952;2023-03-31T07:22:02;27.88;;;6.35;;
64375;SDS011;50700;55.416;12.952;2023-03-31T07:24:30;19.77;;;5.97;;
64375;SDS011;50700;55.416;12.952;2023-03-31T07:26:56;22.00;;;6.53;;
64375;SDS011;50700;55.416;12.952;2023-03-31T07:29:22;24.48;;;6.50;;
64375;SDS011;50700;55.416;12.952;2023-03-31T07:31:49;31.70;;;7.03;;
64375;SDS011;50700;55.416;12.952;2023-03-31T07:34:15;25.50;;;6.38;;
64375;SDS011;50700;55.416;12.952;2023-03-31T07:36:41;19.83;;;5.80;;
64375;SDS011;50700;55.416;12.952;2023-03-31T07:39:07;23.63;;;6.10;;
64375;SDS011;50700;55.416;12.952;2023-03-31T07:41:34;24.40;;;6.35;;
64375;SDS011;50700;55.416;12.952;2023-03-31T07:44:00;25.80;;;6.38;;
64375;SDS011;50700;55.416;12.952;2023-03-31T07:46:27;27.45;;;6.78;;
64375;SDS011;50700;55.416;12.952;2023-03-31T07:48:53;27.75;;;7.10;;
64375;SDS011;50700;55.416;12.952;2023-03-31T07:51:21;25.55;;;7.95;;
64375;SDS011;50700;55.416;12.952;2023-03-31T07:53:48;23.48;;;7.30;;
64375;SDS011;50700;55.416;12.952;2023-03-31T07:56:20;24.65;;;7.57;;
64375;SDS011;50700;55.416;12.952;2023-03-31T07:58:47;23.40;;;7.50;;
64375;SDS011;50700;55.416;12.952;2023-03-31T08:01:16;25.33;;;7.57;;
64375;SDS011;50700;55.416;12.952;2023-03-31T08:03:43;23.38;;;7.35;;
64375;SDS011;50700;55.416;12.952;2023-03-31T08:06:10;27.88;;;7.30;;
64375;SDS011;50700;55.416;12.952;2023-03-31T08:08:36;22.13;;;6.75;;
64375;SDS011;50700;55.416;12.952;2023-03-31T08:11:07;17.25;;;6.00;;
64375;SDS011;50700;55.416;12.952;2023-03-31T08:13:34;22.35;;;6.70;;
64375;SDS011;50700;55.416;12.952;2023-03-31T08:16:00;20.00;;;6.03;;
64375;SDS011;50700;55.416;12.952;2023-03-31T08:18:28;20.45;;;6.82;;
64375;SDS011;50700;55.416;12.952;2023-03-31T08:20:54;24.75;;;7.05;;
64375;SDS011;50700;55.416;12.952;2023-03-31T08:23:20;25.45;;;7.80;;
64375;SDS011;50700;55.416;12.952;2023-03-31T08:25:46;27.58;;;7.05;;
64375;SDS011;50700;55.416;12.952;2023-03-31T08:28:12;27.38;;;7.32;;
64375;SDS011;50700;55.416;12.952;2023-03-31T08:30:39;25.35;;;6.75;;
64375;SDS011;50700;55.416;12.952;2023-03-31T08:33:06;26.20;;;6.65;;
64375;SDS011;50700;55.416;12.952;2023-03-31T08:35:35;26.67;;;6.65;;
64375;SDS011;50700;55.416;12.952;2023-03-31T08:38:01;24.15;;;7.10;;
64375;SDS011;50700;55.416;12.952;2023-03-31T08:40:28;23.90;;;7.07;;
64375;SDS011;50700;55.416;12.952;2023-03-31T08:42:56;33.70;;;7.20;;
64375;SDS011;50700;55.416;12.952;2023-03-31T08:45:23;28.58;;;6.75;;
64375;SDS011;50700;55.416;12.952;2023-03-31T08:47:52;27.92;;;7.10;;
64375;SDS011;50700;55.416;12.952;2023-03-31T08:50:25;28.98;;;6.88;;
64375;SDS011;50700;55.416;12.952;2023-03-31T08:55:24;32.10;;;8.50;;
64375;SDS011;50700;55.416;12.952;2023-03-31T08:57:57;35.25;;;8.50;;
64375;SDS011;50700;55.416;12.952;2023-03-31T09:00:24;24.45;;;7.60;;
64375;SDS011;50700;55.416;12.952;2023-03-31T09:02:57;33.42;;;6.65;;
64375;SDS011;50700;55.416;12.952;2023-03-31T09:05:32;22.92;;;7.90;;
64375;SDS011;50700;55.416;12.952;2023-03-31T09:10:45;23.30;;;7.45;;
64375;SDS011;50700;55.416;12.952;2023-03-31T09:13:17;26.73;;;6.63;;
64375;SDS011;50700;55.416;12.952;2023-03-31T09:15:59;33.67;;;8.10;;
64375;SDS011;50700;55.416;12.952;2023-03-31T09:20:55;27.77;;;7.03;;
64375;SDS011;50700;55.416;12.952;2023-03-31T09:23:29;14.88;;;5.55;;
64375;SDS011;50700;55.416;12.952;2023-03-31T09:25:57;18.80;;;5.95;;
64375;SDS011;50700;55.416;12.952;2023-03-31T09:28:27;21.25;;;6.75;;
64375;SDS011;50700;55.416;12.952;2023-03-31T09:30:55;20.85;;;6.10;;
64375;SDS011;50700;55.416;12.952;2023-03-31T09:33:29;20.80;;;6.13;;
64375;SDS011;50700;55.416;12.952;2023-03-31T09:36:01;17.60;;;5.38;;
64375;SDS011;50700;55.416;12.952;2023-03-31T09:38:28;29.17;;;6.43;;
64375;SDS011;50700;55.416;12.952;2023-03-31T09:40:58;19.45;;;5.63;;
64375;SDS011;50700;55.416;12.952;2023-03-31T09:43:26;16.55;;;5.43;;
64375;SDS011;50700;55.416;12.952;2023-03-31T09:45:53;18.30;;;5.18;;
64375;SDS011;50700;55.416;12.952;2023-03-31T09:48:27;15.35;;;4.95;;
64375;SDS011;50700;55.416;12.952;2023-03-31T09:50:56;14.57;;;5.53;;
64375;SDS011;50700;55.416;12.952;2023-03-31T09:56:08;14.27;;;5.85;;
64375;SDS011;50700;55.416;12.952;2023-03-31T09:58:42;12.70;;;4.90;;
64375;SDS011;50700;55.416;12.952;2023-03-31T10:01:11;20.20;;;5.63;;
64375;SDS011;50700;55.416;12.952;2023-03-31T10:03:49;14.13;;;5.03;;
64375;SDS011;50700;55.416;12.952;2023-03-31T10:06:16;32.22;;;7.10;;
64375;SDS011;50700;55.416;12.952;2023-03-31T10:08:58;19.13;;;6.68;;
64375;SDS011;50700;55.416;12.952;2023-03-31T10:11:26;20.98;;;6.72;;
64375;SDS011;50700;55.416;12.952;2023-03-31T10:14:00;22.20;;;7.35;;
64375;SDS011;50700;55.416;12.952;2023-03-31T10:16:29;18.00;;;6.07;;
64375;SDS011;50700;55.416;12.952;2023-03-31T10:21:41;21.98;;;7.40;;
64375;SDS011;50700;55.416;12.952;2023-03-31T10:24:10;20.77;;;6.63;;
64375;SDS011;50700;55.416;12.952;2023-03-31T10:26:36;16.83;;;6.20;;
64375;SDS011;50700;55.416;12.952;2023-03-31T10:29:08;25.00;;;6.38;;
64375;SDS011;50700;55.416;12.952;2023-03-31T10:31:35;16.27;;;6.40;;
64375;SDS011;50700;55.416;12.952;2023-03-31T10:34:06;22.33;;;6.78;;
64375;SDS011;50700;55.416;12.952;2023-03-31T10:36:33;20.60;;;6.78;;
64375;SDS011;50700;55.416;12.952;2023-03-31T10:38:59;17.77;;;6.30;;
64375;SDS011;50700;55.416;12.952;2023-03-31T10:41:30;19.73;;;6.25;;
64375;SDS011;50700;55.416;12.952;2023-03-31T10:43:57;19.58;;;6.95;;
64375;SDS011;50700;55.416;12.952;2023-03-31T10:51:48;27.23;;;7.88;;
64375;SDS011;50700;55.416;12.952;2023-03-31T10:54:15;20.27;;;7.35;;
64375;SDS011;50700;55.416;12.952;2023-03-31T10:59:26;16.58;;;7.18;;
64375;SDS011;50700;55.416;12.952;2023-03-31T11:07:22;20.30;;;7.28;;
64375;SDS011;50700;55.416;12.952;2023-03-31T11:10:09;22.25;;;9.05;;
64375;SDS011;50700;55.416;12.952;2023-03-31T11:12:41;24.60;;;7.00;;
64375;SDS011;50700;55.416;12.952;2023-03-31T11:15:19;26.92;;;8.43;;
64375;SDS011;50700;55.416;12.952;2023-03-31T11:17:50;20.27;;;6.53;;
64375;SDS011;50700;55.416;12.952;2023-03-31T11:46:16;16.45;;;6.55;;
64375;SDS011;50700;55.416;12.952;2023-03-31T11:48:49;22.20;;;6.53;;
64375;SDS011;50700;55.416;12.952;2023-03-31T11:51:18;18.65;;;6.75;;
64375;SDS011;50700;55.416;12.952;2023-03-31T11:53:45;22.67;;;7.22;;
64375;SDS011;50700;55.416;12.952;2023-03-31T11:56:13;20.88;;;6.45;;
64375;SDS011;50700;55.416;12.952;2023-03-31T11:59:00;19.00;;;6.55;;
64375;SDS011;50700;55.416;12.952;2023-03-31T12:01:28;15.75;;;6.38;;
64375;SDS011;50700;55.416;12.952;2023-03-31T12:04:10;17.55;;;6.53;;
64375;SDS011;50700;55.416;12.952;2023-03-31T12:06:44;14.00;;;6.25;;
64375;SDS011;50700;55.416;12.952;2023-03-31T12:14:36;23.65;;;7.55;;
64375;SDS011;50700;55.416;12.952;2023-03-31T12:17:14;22.02;;;7.82;;
64375;SDS011;50700;55.416;12.952;2023-03-31T12:19:44;24.98;;;8.50;;
64375;SDS011;50700;55.416;12.952;2023-03-31T12:22:14;28.35;;;9.10;;
64375;SDS011;50700;55.416;12.952;2023-03-31T12:24:42;21.73;;;8.23;;
64375;SDS011;50700;55.416;12.952;2023-03-31T12:27:16;25.67;;;7.97;;
64375;SDS011;50700;55.416;12.952;2023-03-31T12:29:59;26.60;;;8.50;;
64375;SDS011;50700;55.416;12.952;2023-03-31T12:32:31;27.48;;;8.15;;
64375;SDS011;50700;55.416;12.952;2023-03-31T12:35:06;23.15;;;8.18;;
64375;SDS011;50700;55.416;12.952;2023-03-31T12:40:10;23.15;;;7.95;;
64375;SDS011;50700;55.416;12.952;2023-03-31T12:42:43;21.75;;;8.50;;
64375;SDS011;50700;55.416;12.952;2023-03-31T12:45:27;27.30;;;8.50;;
64375;SDS011;50700;55.416;12.952;2023-03-31T12:55:41;24.27;;;7.80;;
64375;SDS011;50700;55.416;12.952;2023-03-31T13:01:06;27.05;;;9.85;;
64375;SDS011;50700;55.416;12.952;2023-03-31T13:06:03;21.15;;;8.40;;
64375;SDS011;50700;55.416;12.952;2023-03-31T13:11:17;24.23;;;9.23;;
64375;SDS011;50700;55.416;12.952;2023-03-31T13:13:46;18.80;;;7.82;;
64375;SDS011;50700;55.416;12.952;2023-03-31T13:16:18;17.67;;;8.13;;
64375;SDS011;50700;55.416;12.952;2023-03-31T13:18:49;25.67;;;8.48;;
64375;SDS011;50700;55.416;12.952;2023-03-31T13:21:16;23.80;;;9.07;;
64375;SDS011;50700;55.416;12.952;2023-03-31T13:23:43;17.92;;;7.93;;
64375;SDS011;50700;55.416;12.952;2023-03-31T13:26:56;18.88;;;8.00;;
64375;SDS011;50700;55.416;12.952;2023-03-31T13:34:27;22.13;;;8.13;;
64375;SDS011;50700;55.416;12.952;2023-03-31T13:47:36;20.70;;;8.45;;
64375;SDS011;50700;55.416;12.952;2023-03-31T13:50:16;20.38;;;7.80;;
64375;SDS011;50700;55.416;12.952;2023-03-31T13:58:13;22.35;;;7.72;;
64375;SDS011;50700;55.416;12.952;2023-03-31T14:03:23;23.75;;;8.98;;
64375;SDS011;50700;55.416;12.952;2023-03-31T14:06:18;19.27;;;8.65;;
64375;SDS011;50700;55.416;12.952;2023-03-31T14:08:51;20.63;;;9.18;;
64375;SDS011;50700;55.416;12.952;2023-03-31T14:11:22;22.38;;;8.55;;
64375;SDS011;50700;55.416;12.952;2023-03-31T14:14:02;25.35;;;8.15;;
64375;SDS011;50700;55.416;12.952;2023-03-31T14:16:31;26.27;;;8.95;;
64375;SDS011;50700;55.416;12.952;2023-03-31T14:19:01;25.92;;;10.27;;
64375;SDS011;50700;55.416;12.952;2023-03-31T14:29:41;23.38;;;9.77;;
64375;SDS011;50700;55.416;12.952;2023-03-31T14:37:28;23.58;;;8.63;;
64375;SDS011;50700;55.416;12.952;2023-03-31T14:39:55;24.65;;;7.90;;
64375;SDS011;50700;55.416;12.952;2023-03-31T14:44:56;21.83;;;9.35;;
64375;SDS011;50700;55.416;12.952;2023-03-31T14:47:24;26.23;;;10.30;;
64375;SDS011;50700;55.416;12.952;2023-03-31T14:49:59;32.03;;;11.30;;
64375;SDS011;50700;55.416;12.952;2023-03-31T14:52:28;26.48;;;10.65;;
64375;SDS011;50700;55.416;12.952;2023-03-31T14:54:54;22.10;;;9.15;;
64375;SDS011;50700;55.416;12.952;2023-03-31T14:57:34;26.13;;;9.60;;
64375;SDS011;50700;55.416;12.952;2023-03-31T15:00:03;29.70;;;10.13;;
64375;SDS011;50700;55.416;12.952;2023-03-31T15:02:41;23.23;;;9.85;;
64375;SDS011;50700;55.416;12.952;2023-03-31T15:05:08;25.58;;;9.55;;
64375;SDS011;50700;55.416;12.952;2023-03-31T15:07:36;21.27;;;8.75;;
64375;SDS011;50700;55.416;12.952;2023-03-31T15:10:02;25.50;;;9.10;;
64375;SDS011;50700;55.416;12.952;2023-03-31T15:12:29;22.15;;;9.82;;
64375;SDS011;50700;55.416;12.952;2023-03-31T15:15:03;33.00;;;11.13;;
64375;SDS011;50700;55.416;12.952;2023-03-31T15:17:31;23.88;;;9.60;;
64375;SDS011;50700;55.416;12.952;2023-03-31T15:19:58;26.48;;;9.55;;
64375;SDS011;50700;55.416;12.952;2023-03-31T15:22:28;22.23;;;9.20;;
64375;SDS011;50700;55.416;12.952;2023-03-31T15:24:54;26.90;;;10.45;;
64375;SDS011;50700;55.416;12.952;2023-03-31T15:27:30;26.65;;;9.57;;
64375;SDS011;50700;55.416;12.952;2023-03-31T15:29:57;25.10;;;9.70;;
64375;SDS011;50700;55.416;12.952;2023-03-31T15:32:26;27.10;;;9.75;;
64375;SDS011;50700;55.416;12.952;2023-03-31T15:34:53;22.60;;;9.75;;
64375;SDS011;50700;55.416;12.952;2023-03-31T15:37:21;25.23;;;8.68;;
64375;SDS011;50700;55.416;12.952;2023-03-31T15:39:51;24.08;;;9.70;;
64375;SDS011;50700;55.416;12.952;2023-03-31T15:42:20;30.00;;;10.48;;
64375;SDS011;50700;55.416;12.952;2023-03-31T15:44:47;29.85;;;10.30;;
64375;SDS011;50700;55.416;12.952;2023-03-31T15:47:19;32.27;;;10.30;;
64375;SDS011;50700;55.416;12.952;2023-03-31T15:49:50;29.48;;;10.57;;
64375;SDS011;50700;55.416;12.952;2023-03-31T15:52:21;26.58;;;10.27;;
64375;SDS011;50700;55.416;12.952;2023-03-31T15:54:50;32.72;;;11.40;;
64375;SDS011;50700;55.416;12.952;2023-03-31T15:57:16;25.10;;;10.65;;
64375;SDS011;50700;55.416;12.952;2023-03-31T15:59:44;23.63;;;10.10;;
64375;SDS011;50700;55.416;12.952;2023-03-31T16:05:29;27.75;;;9.75;;
64375;SDS011;50700;55.416;12.952;2023-03-31T16:08:01;27.88;;;10.85;;
64375;SDS011;50700;55.416;12.952;2023-03-31T16:10:27;35.30;;;11.15;;
64375;SDS011;50700;55.416;12.952;2023-03-31T16:12:56;28.73;;;10.90;;
64375;SDS011;50700;55.416;12.952;2023-03-31T16:15:31;22.90;;;9.07;;
64375;SDS011;50700;55.416;12.952;2023-03-31T16:18:01;18.90;;;7.72;;
64375;SDS011;50700;55.416;12.952;2023-03-31T16:20:35;13.93;;;7.05;;
64375;SDS011;50700;55.416;12.952;2023-03-31T16:23:10;15.15;;;6.95;;
64375;SDS011;50700;55.416;12.952;2023-03-31T16:25:38;15.25;;;7.50;;
64375;SDS011;50700;55.416;12.952;2023-03-31T16:28:05;15.27;;;6.82;;
64375;SDS011;50700;55.416;12.952;2023-03-31T16:30:36;14.45;;;7.45;;
64375;SDS011;50700;55.416;12.952;2023-03-31T16:33:04;15.98;;;6.95;;
64375;SDS011;50700;55.416;12.952;2023-03-31T16:35:35;13.20;;;6.35;;
64375;SDS011;50700;55.416;12.952;2023-03-31T16:38:01;13.60;;;5.63;;
64375;SDS011;50700;55.416;12.952;2023-03-31T16:40:29;13.07;;;5.63;;
64375;SDS011;50700;55.416;12.952;2023-03-31T16:45:59;14.63;;;5.95;;
64375;SDS011;50700;55.416;12.952;2023-03-31T16:48:26;13.70;;;5.18;;
64375;SDS011;50700;55.416;12.952;2023-03-31T16:50:54;10.15;;;5.47;;
64375;SDS011;50700;55.416;12.952;2023-03-31T16:53:31;11.27;;;5.50;;
64375;SDS011;50700;55.416;12.952;2023-03-31T16:55:58;11.38;;;5.22;;
64375;SDS011;50700;55.416;12.952;2023-03-31T16:58:25;9.98;;;4.95;;
64375;SDS011;50700;55.416;12.952;2023-03-31T17:00:54;11.85;;;4.78;;
64375;SDS011;50700;55.416;12.952;2023-03-31T17:03:21;5.82;;;3.35;;
64375;SDS011;50700;55.416;12.952;2023-03-31T17:05:48;9.18;;;4.40;;
64375;SDS011;50700;55.416;12.952;2023-03-31T17:08:17;8.77;;;3.70;;
64375;SDS011;50700;55.416;12.952;2023-03-31T17:11:05;6.57;;;3.45;;
64375;SDS011;50700;55.416;12.952;2023-03-31T17:13:31;7.97;;;3.08;;
64375;SDS011;50700;55.416;12.952;2023-03-31T17:15:58;6.28;;;2.92;;
64375;SDS011;50700;55.416;12.952;2023-03-31T17:18:25;5.40;;;2.80;;
64375;SDS011;50700;55.416;12.952;2023-03-31T17:20:51;7.40;;;3.30;;
64375;SDS011;50700;55.416;12.952;2023-03-31T17:23:18;4.85;;;2.50;;